Time;durP1;ratioP1;P1;durP2;ratioP2;P2;SDS_P1;SDS_P2;PMS_P1;PMS_P2;Temp;Humidity;BMP_temperature;BMP_pressure;BME280_temperature;BME280_humidity;BME280_pressure;Samples;Min_cycle;Max_cycle;Signal;HPM_P1;HPM_P2
2023/12/02 00:00:54;;;;;;;;;5.00;5.00;;;;;21.46;45.67;99999.95;112269;1248;20198;-32
2023/12/02 00:03:33;;;;;;;;;7.00;5.00;;;;;21.45;45.83;100002.64;112061;1251;21071;-32
2023/12/02 00:06:00;;;;;;;;;5.00;5.00;;;;;21.45;45.65;100002.52;112241;1263;19613;-32
2023/12/02 00:08:27;;;;;;;;;7.00;5.00;;;;;21.43;45.65;99992.46;112070;1248;20095;-32
2023/12/02 00:10:55;;;;;;;;;4.00;4.00;;;;;21.44;45.65;99990.55;112276;1248;20791;-32
2023/12/02 00:13:22;;;;;;;;;4.33;4.33;;;;;21.44;45.67;99982.64;112086;1248;20796;-32
2023/12/02 00:15:49;;;;;;;;;4.50;4.50;;;;;21.43;45.64;99985.06;112193;1248;19993;-32
2023/12/02 00:18:16;;;;;;;;;7.00;6.00;;;;;21.43;45.50;99984.52;112139;1249;20739;-31
2023/12/02 00:20:44;;;;;;;;;2.50;2.50;;;;;21.44;45.52;99979.81;111987;1248;19596;-32
2023/12/02 00:23:11;;;;;;;;;5.00;5.00;;;;;21.43;45.82;99977.05;112157;1263;18483;-32
2023/12/02 00:25:38;;;;;;;;;8.00;5.00;;;;;21.43;45.52;99968.39;111993;1248;20766;-32
2023/12/02 00:28:06;;;;;;;;;4.00;4.00;;;;;21.43;45.37;99968.02;112180;1248;19591;-32
2023/12/02 00:30:33;;;;;;;;;8.00;5.00;;;;;21.43;45.66;99971.91;112027;1248;20224;-31
2023/12/02 00:33:00;;;;;;;;;4.00;4.00;;;;;21.42;45.51;99981.25;112202;1248;21893;-32
2023/12/02 00:35:28;;;;;;;;;4.00;2.00;;;;;21.43;45.42;99985.70;112101;1256;19658;-31
2023/12/02 00:37:55;;;;;;;;;4.00;4.00;;;;;21.43;45.31;99979.67;112294;1263;21084;-31
2023/12/02 00:40:23;;;;;;;;;6.00;6.00;;;;;21.42;45.53;99974.89;112164;1263;19341;-32
2023/12/02 00:42:51;;;;;;;;;5.00;4.00;;;;;21.43;45.62;99967.14;112294;1248;18190;-32
2023/12/02 00:45:18;;;;;;;;;7.00;7.00;;;;;21.42;45.29;99957.45;112027;1247;20070;-30
2023/12/02 00:47:45;;;;;;;;;6.67;4.67;;;;;21.41;45.43;99959.41;112242;1263;20674;-30
2023/12/02 00:50:13;;;;;;;;;2.00;2.00;;;;;21.42;45.36;99964.27;112037;1255;19639;-31
2023/12/02 00:52:40;;;;;;;;;5.00;4.00;;;;;21.42;45.37;99973.24;112215;1263;18615;-30
2023/12/02 00:55:07;;;;;;;;;5.50;4.00;;;;;21.41;45.22;99978.65;112109;1248;22010;-30
2023/12/02 00:57:35;;;;;;;;;4.00;4.00;;;;;21.41;45.33;99974.46;112008;1251;19644;-30
2023/12/02 01:00:03;;;;;;;;;4.00;4.00;;;;;21.41;45.05;99967.16;112064;1256;19933;-30
2023/12/02 01:02:31;;;;;;;;;4.00;4.00;;;;;21.41;45.16;99968.95;112183;1263;19746;-31
2023/12/02 01:04:58;;;;;;;;;4.00;4.00;;;;;21.41;44.90;99970.75;112032;1248;19664;-31
2023/12/02 01:07:25;;;;;;;;;3.00;3.00;;;;;21.41;45.17;99970.92;112217;1248;21280;-31
2023/12/02 01:09:53;;;;;;;;;6.00;6.00;;;;;21.41;45.25;99976.31;112049;1263;19226;-31
2023/12/02 01:12:20;;;;;;;;;2.00;2.00;;;;;21.42;45.07;99981.96;111970;1248;19618;-31
2023/12/02 01:14:47;;;;;;;;;4.00;4.00;;;;;21.42;45.21;99985.02;112095;1248;20081;-32
2023/12/02 01:17:14;;;;;;;;;5.00;5.00;;;;;21.42;45.44;99992.43;112020;1257;19545;-32
2023/12/02 01:19:42;;;;;;;;;4.67;2.33;;;;;21.40;45.07;99987.60;112126;1263;18212;-32
2023/12/02 01:22:09;;;;;;;;;4.00;4.00;;;;;21.40;45.15;99992.67;112058;1248;20094;-32
2023/12/02 01:24:36;;;;;;;;;5.00;4.00;;;;;21.39;45.15;99993.61;112171;1248;20771;-32
2023/12/02 01:27:04;;;;;;;;;4.50;4.00;;;;;21.41;45.38;99991.69;111983;1248;19526;-32
2023/12/02 01:29:31;;;;;;;;;3.00;3.00;;;;;21.40;45.17;99995.29;112198;1248;20080;-31
2023/12/02 01:31:58;;;;;;;;;4.00;4.00;;;;;21.40;45.07;99996.27;111973;1248;20833;-31
2023/12/02 01:34:26;;;;;;;;;4.00;4.00;;;;;21.38;45.36;99989.11;111997;1263;19527;-31
2023/12/02 01:36:53;;;;;;;;;4.00;4.00;;;;;21.38;44.99;99992.92;112020;1263;19946;-31
2023/12/02 01:39:20;;;;;;;;;5.00;5.00;;;;;21.38;45.15;99994.70;111860;1248;213569;-32
2023/12/02 01:41:47;;;;;;;;;5.00;4.00;;;;;21.38;45.01;100001.41;112067;1251;19541;-32
2023/12/02 01:44:15;;;;;;;;;2.00;2.00;;;;;21.38;45.19;99991.83;112063;1248;20189;-31
2023/12/02 01:46:42;;;;;;;;;4.00;3.00;;;;;21.37;45.11;99985.95;112119;1248;22028;-31
2023/12/02 01:49:09;;;;;;;;;4.50;4.00;;;;;21.36;44.84;99981.06;112089;1248;18187;-30
2023/12/02 01:51:37;;;;;;;;;5.50;4.50;;;;;21.35;45.10;99975.14;112102;1248;21264;-30
2023/12/02 01:54:04;;;;;;;;;4.33;4.33;;;;;21.37;45.19;99976.27;112101;1248;19313;-30
2023/12/02 01:56:31;;;;;;;;;2.00;2.00;;;;;21.36;44.99;99977.42;112076;1248;19676;-31
2023/12/02 01:58:59;;;;;;;;;4.00;4.00;;;;;21.36;45.00;99977.79;111986;1263;19167;-31
2023/12/02 02:01:26;;;;;;;;;4.00;4.00;;;;;21.37;45.12;99971.90;111959;1264;20705;-31
2023/12/02 02:03:53;;;;;;;;;4.00;3.50;;;;;21.37;45.04;99965.80;111970;1250;19608;-31
2023/12/02 02:06:20;;;;;;;;;6.00;4.00;;;;;21.36;45.10;99961.66;112034;1251;20077;-31
2023/12/02 02:08:48;;;;;;;;;4.00;4.00;;;;;21.36;45.00;99961.83;112014;1249;20740;-31
2023/12/02 02:11:15;;;;;;;;;6.67;4.00;;;;;21.38;44.78;99960.29;112018;1264;18880;-31
2023/12/02 02:13:42;;;;;;;;;7.00;5.00;;;;;21.37;45.09;99964.98;112046;1250;20077;-31
2023/12/02 02:16:10;;;;;;;;;4.00;4.00;;;;;21.37;44.87;99961.43;112100;1250;21438;-31
2023/12/02 02:18:37;;;;;;;;;3.00;3.00;;;;;21.37;45.04;99963.40;112018;1260;19489;-31
2023/12/02 02:21:04;;;;;;;;;4.00;3.00;;;;;21.37;44.91;99964.65;112136;1249;18609;-31
2023/12/02 02:23:32;;;;;;;;;4.00;2.00;;;;;21.36;44.97;99963.46;111968;1250;19252;-31
2023/12/02 02:25:59;;;;;;;;;4.00;4.00;;;;;21.37;44.67;99965.90;112009;1250;19661;-31
2023/12/02 02:28:26;;;;;;;;;5.50;4.00;;;;;21.36;44.78;99962.75;112018;1256;18606;-31
2023/12/02 02:30:53;;;;;;;;;4.67;4.00;;;;;21.35;44.88;99961.90;111972;1251;20972;-30
2023/12/02 02:33:21;;;;;;;;;5.00;4.00;;;;;21.35;44.88;99969.79;112049;1250;19612;-31
2023/12/02 02:35:48;;;;;;;;;2.00;2.00;;;;;21.37;44.74;99975.17;111986;1249;20043;-31
2023/12/02 02:38:16;;;;;;;;;4.00;4.00;;;;;21.37;44.58;99974.56;112041;1263;20656;-31
2023/12/02 02:40:43;;;;;;;;;5.00;4.00;;;;;21.36;44.68;99976.11;111998;1264;18168;-31
2023/12/02 02:43:11;;;;;;;;;2.00;2.00;;;;;21.33;44.67;99969.21;112026;1264;18596;-31
2023/12/02 02:45:38;;;;;;;;;2.00;2.00;;;;;21.36;44.75;99973.77;111957;1264;21149;-31
2023/12/02 02:48:06;;;;;;;;;4.67;3.33;;;;;21.34;44.89;99975.25;112091;1263;18201;-30
2023/12/02 02:50:33;;;;;;;;;5.00;5.00;;;;;21.35;44.60;99976.06;111987;1251;19961;-31
2023/12/02 02:53:00;;;;;;;;;4.00;4.00;;;;;21.35;44.67;99974.27;112118;1250;21466;-31
2023/12/02 02:55:27;;;;;;;;;3.00;3.00;;;;;21.36;44.92;99977.20;111952;1264;19473;-31
2023/12/02 02:57:55;;;;;;;;;4.00;4.00;;;;;21.35;44.81;99973.83;112203;1249;20214;-31
2023/12/02 03:00:23;;;;;;;;;2.00;2.00;;;;;21.36;44.72;99967.17;112115;1263;19351;-31
2023/12/02 03:02:50;;;;;;;;;4.00;4.00;;;;;21.33;44.71;99958.48;112204;1256;19484;-30
2023/12/02 03:05:17;;;;;;;;;4.00;4.00;;;;;21.33;44.67;99960.66;112039;1263;20339;-31
2023/12/02 03:07:45;;;;;;;;;4.00;2.50;;;;;21.33;44.55;99972.48;112241;1247;19537;-31
2023/12/02 03:10:12;;;;;;;;;4.00;4.00;;;;;21.34;44.68;99980.43;112090;1248;19525;-31
2023/12/02 03:12:39;;;;;;;;;2.00;2.00;;;;;21.35;44.68;99978.95;112227;1248;21096;-31
2023/12/02 03:15:07;;;;;;;;;4.50;4.00;;;;;21.33;44.60;99972.10;112108;1263;19340;-31
2023/12/02 03:17:34;;;;;;;;;3.00;3.00;;;;;21.33;44.56;99969.98;112263;1249;20936;-30
2023/12/02 03:20:01;;;;;;;;;4.67;4.67;;;;;21.33;44.60;99970.85;112072;1263;19981;-31
2023/12/02 03:22:29;;;;;;;;;4.00;2.00;;;;;21.33;44.51;99967.54;112122;1248;20653;-31
2023/12/02 03:24:56;;;;;;;;;4.00;4.00;;;;;21.35;44.60;99962.22;112149;1248;19591;-31
2023/12/02 03:27:23;;;;;;;;;4.00;4.00;;;;;21.34;44.50;99949.92;112002;1248;20100;-31
2023/12/02 03:29:51;;;;;;;;;3.00;3.00;;;;;21.32;44.52;99954.20;112209;1256;20973;-31
2023/12/02 03:32:18;;;;;;;;;4.00;4.00;;;;;21.34;44.28;99956.79;111994;1263;18606;-31
2023/12/02 03:34:45;;;;;;;;;2.00;2.00;;;;;21.34;44.50;99949.59;112211;1263;18610;-31
2023/12/02 03:37:13;;;;;;;;;2.00;2.00;;;;;21.34;44.51;99957.33;112075;1263;20576;-31
2023/12/02 03:39:40;;;;;;;;;4.33;4.00;;;;;21.33;44.39;99966.60;112271;1263;18181;-31
2023/12/02 03:42:07;;;;;;;;;4.00;2.00;;;;;21.33;44.47;99972.45;112130;1248;19983;-31
2023/12/02 03:44:35;;;;;;;;;2.00;2.00;;;;;21.33;44.54;99970.81;112295;1247;19447;-31
2023/12/02 03:47:03;;;;;;;;;4.00;4.00;;;;;21.33;44.55;99967.96;112117;1263;19430;-31
2023/12/02 03:49:30;;;;;;;;;2.00;2.00;;;;;21.33;44.48;99969.50;112217;1257;19901;-31
2023/12/02 03:51:59;;;;;;;;;2.00;2.00;;;;;21.33;44.28;99974.95;112067;1248;20711;-31
2023/12/02 03:54:26;;;;;;;;;4.00;4.00;;;;;21.33;44.34;99979.57;112172;1248;19646;-31
2023/12/02 03:56:54;;;;;;;;;5.00;4.00;;;;;21.32;44.21;99977.73;112013;1263;18644;-31
2023/12/02 03:59:21;;;;;;;;;2.00;2.00;;;;;21.31;44.44;99976.10;112157;1248;20858;-31
2023/12/02 04:01:49;;;;;;;;;4.00;4.00;;;;;21.33;44.29;99972.27;112012;1263;19170;-31
2023/12/02 04:04:16;;;;;;;;;4.00;4.00;;;;;21.32;44.23;99976.31;112167;1263;19865;-31
2023/12/02 04:06:44;;;;;;;;;4.00;4.00;;;;;21.32;44.25;99978.16;111981;1248;20762;-30
2023/12/02 04:09:11;;;;;;;;;4.00;2.00;;;;;21.32;44.34;99983.17;112193;1263;18143;-31
2023/12/02 04:11:39;;;;;;;;;4.00;4.00;;;;;21.33;44.43;99979.36;111993;1247;20181;-31
2023/12/02 04:14:06;;;;;;;;;4.00;4.00;;;;;21.35;44.14;99981.19;112185;1248;20754;-30
2023/12/02 04:16:33;;;;;;;;;4.00;2.00;;;;;21.33;44.22;99980.07;111991;1248;19624;-31
2023/12/02 04:19:01;;;;;;;;;4.00;4.00;;;;;21.32;44.24;99968.58;112213;1263;18598;-31
2023/12/02 04:21:28;;;;;;;;;5.00;5.00;;;;;21.31;44.33;99963.15;112002;1263;19344;-31
2023/12/02 04:23:56;;;;;;;;;3.00;2.50;;;;;21.31;44.23;99953.91;112185;1263;18175;-31
2023/12/02 04:26:23;;;;;;;;;4.00;4.00;;;;;21.32;44.23;99948.91;112005;1248;18937;-31
2023/12/02 04:28:50;;;;;;;;;5.00;4.00;;;;;21.31;44.18;99948.98;112183;1263;19537;-31
2023/12/02 04:31:18;;;;;;;;;5.00;4.00;;;;;21.30;44.39;99945.62;112041;1248;18192;-31
2023/12/02 04:33:45;;;;;;;;;2.00;2.00;;;;;21.28;44.32;99941.66;111973;1248;19156;-31
2023/12/02 04:36:13;;;;;;;;;4.00;3.00;;;;;21.29;44.21;99945.88;112080;1248;21541;-31
2023/12/02 04:38:41;;;;;;;;;5.00;4.00;;;;;21.30;44.20;99946.08;112126;1263;18422;-31
2023/12/02 04:41:09;;;;;;;;;4.00;4.00;;;;;21.29;44.16;99946.00;111969;1256;18067;-30
2023/12/02 04:43:36;;;;;;;;;5.00;4.00;;;;;21.28;44.34;99944.55;112218;1263;20689;-30
2023/12/02 04:46:03;;;;;;;;;2.00;2.00;;;;;21.28;44.41;99944.44;111976;1257;18771;-30
2023/12/02 04:48:30;;;;;;;;;5.00;4.00;;;;;21.28;44.22;99950.66;112090;1251;20074;-30
2023/12/02 04:50:58;;;;;;;;;2.00;2.00;;;;;21.26;44.07;99957.00;112046;1263;20525;-31
2023/12/02 04:53:25;;;;;;;;;2.50;2.50;;;;;21.26;43.97;99962.83;111996;1248;19545;-31
2023/12/02 04:55:53;;;;;;;;;4.50;4.00;;;;;21.27;44.02;99968.04;112064;1248;21232;-31
2023/12/02 04:58:20;;;;;;;;;4.00;4.00;;;;;21.28;44.28;99972.55;111956;1264;20829;-30
2023/12/02 05:00:48;;;;;;;;;5.00;5.00;;;;;21.28;44.30;99967.92;112046;1263;19106;-31
2023/12/02 05:03:17;;;;;;;;;5.00;4.00;;;;;21.27;43.95;99973.66;111992;1250;20074;-31
2023/12/02 05:05:44;;;;;;;;;5.00;5.00;;;;;21.28;44.13;99977.61;112083;1249;20719;-31
2023/12/02 05:08:13;;;;;;;;;6.00;4.00;;;;;21.27;43.94;99981.17;112063;1263;19464;-31
2023/12/02 05:10:40;;;;;;;;;5.00;5.00;;;;;21.26;44.08;99982.16;112034;1247;22494;-31
2023/12/02 05:13:07;;;;;;;;;5.00;5.00;;;;;21.26;44.19;99986.73;112100;1263;19360;-30
2023/12/02 05:15:35;;;;;;;;;5.00;5.00;;;;;21.28;44.02;99987.48;112122;1248;19621;-30
2023/12/02 05:18:02;;;;;;;;;5.00;4.00;;;;;21.28;44.00;99992.39;112206;1248;19962;-31
2023/12/02 05:20:29;;;;;;;;;5.67;4.33;;;;;21.28;43.97;99995.06;112184;1249;20728;-31
2023/12/02 05:22:57;;;;;;;;;4.67;4.67;;;;;21.26;43.88;99995.20;112127;1263;19423;-31
2023/12/02 05:25:24;;;;;;;;;4.00;4.00;;;;;21.26;44.19;99990.55;112037;1257;20281;-31
2023/12/02 05:27:51;;;;;;;;;5.00;4.00;;;;;21.26;44.02;99984.78;111970;1248;20771;-32
2023/12/02 05:30:19;;;;;;;;;4.00;4.00;;;;;21.27;44.05;99984.51;112017;1248;19659;-31
2023/12/02 05:32:46;;;;;;;;;4.00;4.00;;;;;21.26;43.96;99981.29;112015;1263;18622;-31
2023/12/02 05:35:14;;;;;;;;;5.00;5.00;;;;;21.26;43.94;99975.08;112027;1248;19407;-31
2023/12/02 05:37:41;;;;;;;;;7.00;5.00;;;;;21.26;43.72;99967.52;112027;1263;18159;-31
2023/12/02 05:40:09;;;;;;;;;4.67;4.67;;;;;21.26;44.14;99966.04;112006;1248;20081;-31
2023/12/02 05:42:37;;;;;;;;;4.00;4.00;;;;;21.27;43.84;99969.86;112109;1248;20801;-31
2023/12/02 05:45:04;;;;;;;;;7.00;7.00;;;;;21.26;44.15;99968.38;112181;1248;18177;-31
2023/12/02 05:47:32;;;;;;;;;7.00;5.00;;;;;21.26;44.03;99964.84;111993;1263;18631;-31
2023/12/02 05:49:59;;;;;;;;;8.00;7.00;;;;;21.26;43.96;99954.11;112120;1250;20787;-31
2023/12/02 05:52:26;;;;;;;;;8.00;7.00;;;;;21.27;43.68;99949.64;112034;1256;18627;-31
2023/12/02 05:54:54;;;;;;;;;7.00;6.00;;;;;21.27;43.86;99953.61;111999;1263;18649;-31
2023/12/02 05:57:21;;;;;;;;;7.00;7.00;;;;;21.25;43.94;99953.20;112056;1263;20767;-31
2023/12/02 05:59:50;;;;;;;;;7.00;5.00;;;;;21.26;43.63;99952.20;111988;1263;19479;-31
2023/12/02 06:02:17;;;;;;;;;7.00;7.00;;;;;21.26;43.97;99947.41;112016;1257;19961;-33
2023/12/02 06:04:45;;;;;;;;;9.00;7.00;;;;;21.25;43.97;99945.52;112157;1263;19222;-31
2023/12/02 06:07:12;;;;;;;;;5.00;5.00;;;;;21.25;43.78;99946.88;111991;1256;19541;-31
2023/12/02 06:09:39;;;;;;;;;7.50;7.50;;;;;21.26;43.93;99950.08;112195;1247;18581;-31
2023/12/02 06:12:07;;;;;;;;;10.00;8.00;;;;;21.26;43.84;99946.27;112002;1256;20941;-31
2023/12/02 06:14:34;;;;;;;;;7.00;7.00;;;;;21.26;43.90;99950.42;112094;1248;20856;-31
2023/12/02 06:17:01;;;;;;;;;7.00;7.00;;;;;21.26;43.89;99951.06;112070;1248;20044;-31
2023/12/02 06:19:29;;;;;;;;;10.00;7.00;;;;;21.26;43.74;99950.74;111977;1248;20767;-30
2023/12/02 06:21:56;;;;;;;;;9.00;7.00;;;;;21.25;43.68;99949.71;112101;1248;18184;-31
2023/12/02 06:24:23;;;;;;;;;9.00;7.00;;;;;21.25;43.90;99949.98;111984;1247;20205;-31
2023/12/02 06:26:51;;;;;;;;;9.50;9.00;;;;;21.26;43.66;99954.11;112115;1263;20684;-31
2023/12/02 06:29:18;;;;;;;;;7.67;7.67;;;;;21.26;43.85;99960.55;111998;1251;19603;-31
2023/12/02 06:31:45;;;;;;;;;8.00;7.00;;;;;21.26;43.89;99971.16;112178;1247;18576;-31
2023/12/02 06:34:12;;;;;;;;;7.00;7.00;;;;;21.24;43.64;99979.09;111998;1248;19319;-30
2023/12/02 06:36:40;;;;;;;;;7.00;7.00;;;;;21.25;43.90;99976.91;112244;1263;19433;-31
2023/12/02 06:39:07;;;;;;;;;7.00;7.00;;;;;21.25;43.89;99972.64;112003;1248;20222;-31
2023/12/02 06:41:35;;;;;;;;;9.00;9.00;;;;;21.25;43.62;99981.04;112208;1263;19338;-31
2023/12/02 06:44:02;;;;;;;;;7.00;7.00;;;;;21.25;43.63;99985.34;112002;1248;20870;-31
2023/12/02 06:46:30;;;;;;;;;8.33;8.00;;;;;21.25;43.72;99986.88;112204;1256;18601;-31
2023/12/02 06:48:57;;;;;;;;;12.00;9.00;;;;;21.25;43.74;99991.61;112051;1248;20736;-31
2023/12/02 06:51:28;;;;;;;;;11.00;10.00;;;;;21.24;43.49;99989.45;112266;1248;19330;-31
2023/12/02 06:53:55;;;;;;;;;7.50;7.50;;;;;21.23;43.63;99995.16;112194;1248;20161;-31
2023/12/02 06:56:22;;;;;;;;;9.00;9.00;;;;;21.24;43.72;100004.64;112039;1263;19347;-31
2023/12/02 06:58:50;;;;;;;;;9.00;9.00;;;;;21.24;43.91;100004.59;112233;1263;18364;-31
2023/12/02 07:01:17;;;;;;;;;7.00;7.00;;;;;21.23;43.58;100010.58;112111;1247;18662;-31
2023/12/02 07:03:44;;;;;;;;;8.33;7.00;;;;;21.24;43.53;100012.53;112303;1263;19327;-31
2023/12/02 07:06:12;;;;;;;;;7.33;7.33;;;;;21.25;43.73;100016.45;112152;1248;19697;-31
2023/12/02 07:08:39;;;;;;;;;10.00;10.00;;;;;21.24;43.51;100019.45;112219;1247;21213;-31
2023/12/02 07:11:06;;;;;;;;;8.00;7.00;;;;;21.24;43.39;100020.11;112126;1263;19289;-31
2023/12/02 07:13:34;;;;;;;;;10.00;8.00;;;;;21.24;43.37;100018.31;111971;1263;18810;-31
2023/12/02 07:16:01;;;;;;;;;11.00;10.00;;;;;21.26;43.59;100022.70;112146;1248;21269;-31
2023/12/02 07:18:28;;;;;;;;;7.00;6.50;;;;;21.24;43.52;100028.01;111946;1248;20613;-31
2023/12/02 07:20:56;;;;;;;;;8.00;7.00;;;;;21.28;43.46;100037.44;112166;1263;19926;-31
2023/12/02 07:23:25;;;;;;;;;10.00;8.00;;;;;21.37;43.40;100049.15;112037;1248;20120;-31
2023/12/02 07:25:52;;;;;;;;;10.00;10.00;;;;;21.34;43.72;100049.08;112069;1249;20989;-31
2023/12/02 07:28:20;;;;;;;;;8.00;8.00;;;;;21.32;43.65;100049.20;112267;1248;19972;-31
2023/12/02 07:30:48;;;;;;;;;4.50;4.50;;;;;21.37;44.03;100053.02;112104;1248;20012;-31
2023/12/02 07:33:16;;;;;;;;;7.00;7.00;;;;;21.34;44.14;100053.33;112205;1248;20803;-31
2023/12/02 07:35:43;;;;;;;;;7.50;7.00;;;;;21.35;44.01;100048.59;112024;1248;20728;-31
2023/12/02 07:38:10;;;;;;;;;9.33;8.67;;;;;21.36;44.33;100045.95;112216;1247;18656;-30
2023/12/02 07:40:38;;;;;;;;;29.00;22.00;;;;;21.38;44.28;100038.20;112025;1263;20802;-31
2023/12/02 07:43:05;;;;;;;;;10.00;9.00;;;;;21.36;44.26;100029.33;112249;1248;19662;-31
2023/12/02 07:45:32;;;;;;;;;13.00;13.00;;;;;21.35;45.07;100032.83;112048;1263;18607;-31
2023/12/02 07:48:00;;;;;;;;;14.00;13.00;;;;;21.34;44.89;100030.34;112273;1247;20768;-31
2023/12/02 07:50:27;;;;;;;;;16.00;13.00;;;;;21.35;45.14;100029.34;112102;1248;19950;-31
2023/12/02 07:52:54;;;;;;;;;12.00;11.00;;;;;21.32;45.29;100025.23;112023;1248;20361;-31
2023/12/02 07:55:22;;;;;;;;;11.00;11.00;;;;;21.28;45.36;100020.13;112080;1256;20773;-31
2023/12/02 07:57:49;;;;;;;;;13.00;11.00;;;;;21.29;45.60;100025.43;111949;1263;18804;-31
2023/12/02 08:00:16;;;;;;;;;11.00;10.00;;;;;21.32;45.47;100028.02;112144;1263;20095;-31
2023/12/02 08:02:43;;;;;;;;;8.33;7.33;;;;;21.32;45.43;100029.66;111993;1251;20839;-31
2023/12/02 08:05:11;;;;;;;;;11.00;11.00;;;;;21.34;45.29;100038.52;112219;1248;20234;-31
2023/12/02 08:07:38;;;;;;;;;10.00;8.33;;;;;21.37;45.14;100029.70;112024;1248;20119;-31
2023/12/02 08:10:06;;;;;;;;;17.00;13.00;;;;;21.46;44.84;100033.30;112212;1249;20778;-31
2023/12/02 08:12:34;;;;;;;;;13.00;11.00;;;;;21.44;44.07;100031.90;111974;1251;20075;-31
2023/12/02 08:15:01;;;;;;;;;13.50;10.50;;;;;21.38;43.23;100027.23;112190;1263;18717;-31
2023/12/02 08:17:29;;;;;;;;;11.00;10.00;;;;;21.40;43.71;100028.70;111965;1248;20865;-31
2023/12/02 08:19:56;;;;;;;;;10.00;10.00;;;;;21.41;43.93;100033.52;112189;1263;18629;-31
2023/12/02 08:22:24;;;;;;;;;13.00;13.00;;;;;21.44;44.41;100036.91;111971;1263;18719;-30
2023/12/02 08:24:51;;;;;;;;;14.00;13.00;;;;;21.46;44.88;100038.91;112158;1247;20782;-30
2023/12/02 08:27:19;;;;;;;;;14.33;12.00;;;;;21.46;45.36;100040.54;111946;1248;20004;-31
2023/12/02 08:29:46;;;;;;;;;11.00;10.00;;;;;21.48;46.51;100041.29;112200;1263;19083;-30
2023/12/02 08:32:13;;;;;;;;;8.67;8.67;;;;;21.49;47.36;100044.98;111985;1248;20651;-30
2023/12/02 08:34:41;;;;;;;;;11.00;11.00;;;;;21.50;47.37;100048.67;112189;1248;21220;-30
2023/12/02 08:37:08;;;;;;;;;10.67;10.67;;;;;21.50;47.37;100048.23;112017;1248;20138;-31
2023/12/02 08:39:35;;;;;;;;;11.33;9.00;;;;;21.49;47.48;100054.61;112120;1257;19872;-31
2023/12/02 08:42:03;;;;;;;;;7.00;7.00;;;;;21.51;47.24;100062.17;112050;1263;18607;-30
2023/12/02 08:44:30;;;;;;;;;11.00;11.00;;;;;21.49;47.40;100068.73;111949;1248;18608;-30
2023/12/02 08:47:00;;;;;;;;;7.00;7.00;;;;;21.49;47.36;100072.71;112048;1263;19359;-31
2023/12/02 08:49:28;;;;;;;;;10.00;10.00;;;;;21.47;47.61;100076.08;112036;1256;18733;-31
2023/12/02 08:51:55;;;;;;;;;10.00;10.00;;;;;21.47;47.89;100080.31;111977;1263;21105;-31
2023/12/02 08:54:23;;;;;;;;;11.00;10.00;;;;;21.50;47.53;100086.55;112048;1263;19682;-32
2023/12/02 08:56:50;;;;;;;;;8.00;8.00;;;;;21.52;47.89;100085.76;111961;1248;21203;-31
2023/12/02 08:59:17;;;;;;;;;8.00;8.00;;;;;21.52;47.16;100091.27;112067;1249;18526;-30
2023/12/02 09:01:45;;;;;;;;;11.00;10.00;;;;;21.51;47.25;100089.30;112009;1256;20748;-30
2023/12/02 09:04:12;;;;;;;;;9.00;7.50;;;;;21.55;47.25;100091.11;112112;1248;19591;-30
2023/12/02 09:06:39;;;;;;;;;10.00;8.00;;;;;21.51;47.36;100089.48;112059;1248;20205;-31
2023/12/02 09:09:07;;;;;;;;;13.00;11.00;;;;;21.53;47.47;100083.40;112154;1263;20962;-31
2023/12/02 09:11:34;;;;;;;;;14.00;11.00;;;;;21.49;47.70;100087.75;112045;1263;18571;-31
2023/12/02 09:14:01;;;;;;;;;11.00;10.00;;;;;21.48;47.16;100083.95;112150;1263;18685;-31
2023/12/02 09:16:29;;;;;;;;;9.33;8.00;;;;;21.46;47.00;100089.42;111993;1248;21203;-31
2023/12/02 09:18:56;;;;;;;;;10.00;10.00;;;;;21.42;47.22;100086.80;112131;1248;20072;-31
2023/12/02 09:21:23;;;;;;;;;10.00;9.50;;;;;21.41;47.09;100088.02;111998;1248;20019;-31
2023/12/02 09:23:51;;;;;;;;;13.00;11.50;;;;;21.39;47.12;100096.20;111973;1263;19353;-31
2023/12/02 09:26:18;;;;;;;;;10.00;10.00;;;;;21.37;46.83;100099.71;112004;1256;19971;-31
2023/12/02 09:28:45;;;;;;;;;8.00;7.50;;;;;21.37;47.00;100099.94;112022;1256;20179;-30
2023/12/02 09:31:13;;;;;;;;;11.00;10.00;;;;;21.39;46.94;100099.54;112032;1247;21979;-31
2023/12/02 09:33:40;;;;;;;;;10.00;10.00;;;;;21.44;46.96;100100.30;112043;1263;19539;-31
2023/12/02 09:36:07;;;;;;;;;11.00;10.00;;;;;21.42;46.81;100098.58;112075;1247;18743;-31
2023/12/02 09:38:35;;;;;;;;;9.00;8.50;;;;;21.43;46.76;100096.39;112097;1248;22033;-31
2023/12/02 09:41:02;;;;;;;;;11.00;10.00;;;;;21.44;46.81;100095.83;112100;1263;19949;-30
2023/12/02 09:43:30;;;;;;;;;8.50;8.00;;;;;21.52;47.11;100095.84;112097;1263;20035;-30
2023/12/02 09:45:57;;;;;;;;;7.00;6.00;;;;;21.49;47.09;100099.03;112078;1263;19254;-30
2023/12/02 09:48:24;;;;;;;;;7.67;7.67;;;;;21.52;47.28;100095.29;112118;1263;18136;-31
2023/12/02 09:50:52;;;;;;;;;8.00;8.00;;;;;21.50;47.43;100091.72;112131;1251;20047;-31
2023/12/02 09:53:19;;;;;;;;;10.50;8.00;;;;;21.52;47.34;100089.84;112072;1247;19506;-31
2023/12/02 09:55:46;;;;;;;;;11.00;10.00;;;;;21.51;47.99;100088.05;112022;1248;18396;-31
2023/12/02 09:58:14;;;;;;;;;8.00;7.00;;;;;21.48;48.07;100085.00;111960;1263;21122;-31
2023/12/02 10:00:41;;;;;;;;;9.67;8.00;;;;;21.49;47.58;100071.52;111997;1263;20803;-30
2023/12/02 10:03:08;;;;;;;;;8.00;8.00;;;;;21.45;47.86;100065.23;111995;1248;19614;-32
2023/12/02 10:05:36;;;;;;;;;10.50;9.50;;;;;21.45;48.14;100059.14;112062;1263;18627;-31
2023/12/02 10:08:03;;;;;;;;;9.33;8.00;;;;;21.42;48.48;100060.66;111991;1263;20683;-31
2023/12/02 10:10:31;;;;;;;;;11.00;8.00;;;;;21.41;48.49;100060.45;112030;1264;20143;-31
2023/12/02 10:12:59;;;;;;;;;10.00;8.00;;;;;21.44;48.65;100056.32;112017;1248;20010;-31
2023/12/02 10:15:26;;;;;;;;;8.33;8.33;;;;;21.47;48.46;100054.38;112043;1263;19325;-31
2023/12/02 10:17:54;;;;;;;;;8.00;8.00;;;;;21.50;48.18;100048.94;111954;1263;18585;-31
2023/12/02 10:20:22;;;;;;;;;8.00;7.00;;;;;21.50;48.39;100044.48;112054;1248;20235;-31
2023/12/02 10:22:49;;;;;;;;;7.00;5.00;;;;;21.52;48.94;100047.11;112072;1263;19324;-32
2023/12/02 10:25:16;;;;;;;;;10.00;7.00;;;;;21.55;49.10;100051.11;112016;1248;20812;-31
2023/12/02 10:27:44;;;;;;;;;7.33;5.33;;;;;21.57;49.36;100062.86;111987;1263;18677;-31
2023/12/02 10:30:11;;;;;;;;;7.00;7.00;;;;;21.51;49.20;100070.02;112063;1263;20729;-31
2023/12/02 10:32:38;;;;;;;;;7.00;5.00;;;;;21.49;49.17;100070.38;111993;1263;19495;-31
2023/12/02 10:35:06;;;;;;;;;8.00;8.00;;;;;21.47;49.21;100072.30;112118;1256;18646;-31
2023/12/02 10:37:33;;;;;;;;;7.00;5.33;;;;;21.48;49.16;100076.44;112053;1256;20776;-31
2023/12/02 10:40:00;;;;;;;;;6.00;6.00;;;;;21.52;49.11;100068.80;112123;1248;19693;-30
2023/12/02 10:42:28;;;;;;;;;9.33;7.67;;;;;21.48;48.94;100060.90;112034;1256;19929;-31
2023/12/02 10:44:55;;;;;;;;;7.50;7.00;;;;;21.50;49.15;100056.80;112164;1263;19364;-32
2023/12/02 10:47:22;;;;;;;;;7.33;5.67;;;;;21.51;49.09;100059.12;112005;1248;19573;-31
2023/12/02 10:49:49;;;;;;;;;8.00;8.00;;;;;21.44;48.93;100060.02;112217;1263;18617;-31
2023/12/02 10:52:17;;;;;;;;;8.00;7.00;;;;;21.42;48.73;100054.11;112032;1248;20739;-31
2023/12/02 10:54:44;;;;;;;;;5.50;5.00;;;;;21.41;48.62;100047.05;112124;1248;19664;-31
2023/12/02 10:57:12;;;;;;;;;7.67;6.00;;;;;21.41;48.51;100048.41;112063;1257;20091;-31
2023/12/02 10:59:40;;;;;;;;;5.00;4.00;;;;;21.41;48.43;100050.42;112198;1248;20657;-31
2023/12/02 11:02:07;;;;;;;;;5.00;5.00;;;;;21.40;48.40;100045.90;112039;1263;18913;-31
2023/12/02 11:04:34;;;;;;;;;5.00;5.00;;;;;21.36;47.99;100042.85;112235;1251;20042;-31
2023/12/02 11:07:03;;;;;;;;;5.00;5.00;;;;;21.37;48.03;100036.90;112058;1248;20883;-31
2023/12/02 11:09:30;;;;;;;;;5.00;4.00;;;;;21.34;48.14;100033.33;112224;1248;19588;-31
2023/12/02 11:11:57;;;;;;;;;7.50;7.50;;;;;21.34;48.01;100024.67;112050;1247;20079;-31
2023/12/02 11:14:25;;;;;;;;;4.00;4.00;;;;;21.35;47.83;100026.51;112233;1263;19367;-31
2023/12/02 11:16:52;;;;;;;;;5.50;4.00;;;;;21.34;47.98;100024.57;112057;1248;20797;-31
2023/12/02 11:19:19;;;;;;;;;7.00;7.00;;;;;21.33;47.94;100029.59;112228;1263;18629;-31